createdAt,value
2017-06-26T00:00:25.476Z,97.90
2017-06-26T00:02:51.880Z,97.80
2017-06-26T00:05:18.285Z,98.00
2017-06-26T00:07:44.808Z,97.90
2017-06-26T00:10:11.949Z,98.30
2017-06-26T00:12:39.095Z,98.30
2017-06-26T00:15:05.520Z,98.20
2017-06-26T00:17:32.045Z,97.90
2017-06-26T00:19:58.429Z,98.20
2017-06-26T00:22:24.864Z,98.20
2017-06-26T00:24:51.270Z,98.50
2017-06-26T00:27:17.801Z,98.20
2017-06-26T00:29:44.947Z,99.00
2017-06-26T00:32:11.352Z,98.60
2017-06-26T00:34:37.768Z,98.40
2017-06-26T00:37:04.308Z,98.30
2017-06-26T00:39:30.723Z,98.00
2017-06-26T00:41:57.120Z,97.90
2017-06-26T00:44:24.244Z,98.10
2017-06-26T00:46:50.757Z,98.00
2017-06-26T00:49:17.144Z,98.00
2017-06-26T00:51:44.300Z,97.90
2017-06-26T00:54:10.732Z,97.80
2017-06-26T00:56:37.128Z,98.10
2017-06-26T00:59:03.527Z,98.30
2017-06-26T01:01:29.965Z,97.90
2017-06-26T01:03:56.359Z,97.80
2017-06-26T01:06:23.620Z,98.00
2017-06-26T01:08:50.081Z,98.00
2017-06-26T01:11:16.509Z,98.10
2017-06-26T01:13:43.035Z,97.90
2017-06-26T01:16:09.431Z,97.80
2017-06-26T01:18:36.660Z,98.10
2017-06-26T01:21:03.089Z,98.10
2017-06-26T01:23:29.476Z,98.30
2017-06-26T01:25:55.919Z,98.50
2017-06-26T01:28:22.376Z,98.40
2017-06-26T01:30:48.773Z,98.00
2017-06-26T01:33:15.309Z,98.20
2017-06-26T01:35:41.708Z,97.80
2017-06-26T01:38:08.226Z,98.10
2017-06-26T01:40:34.674Z,98.00
2017-06-26T01:43:01.841Z,98.10
2017-06-26T01:45:29.033Z,97.80
2017-06-26T01:47:55.475Z,97.80
2017-06-26T01:50:22.004Z,97.80
2017-06-26T01:52:48.436Z,97.70
2017-06-26T01:55:14.884Z,97.80
2017-06-26T01:57:41.459Z,97.90
2017-06-26T02:00:08.589Z,97.90
2017-06-26T02:02:34.982Z,97.90
2017-06-26T02:05:01.419Z,97.60
2017-06-26T02:07:27.860Z,97.80
2017-06-26T02:09:54.252Z,98.00
2017-06-26T02:12:20.681Z,97.90
2017-06-26T02:14:47.808Z,98.00
2017-06-26T02:17:14.307Z,97.90
2017-06-26T02:19:40.760Z,97.90
2017-06-26T02:22:07.163Z,97.70
2017-06-26T02:24:33.606Z,97.70
2017-06-26T02:27:00.087Z,97.70
2017-06-26T02:29:26.469Z,97.40
2017-06-26T02:31:52.857Z,97.80
2017-06-26T02:34:20.113Z,97.50
2017-06-26T02:36:47.295Z,97.60
2017-06-26T02:39:13.689Z,97.50
2017-06-26T02:41:40.128Z,97.60
2017-06-26T02:44:07.264Z,96.70
2017-06-26T02:46:34.401Z,97.00
2017-06-26T02:49:00.943Z,97.00
2017-06-26T02:51:27.327Z,97.20
2017-06-26T02:53:53.759Z,96.90
2017-06-26T02:56:20.189Z,96.60
2017-06-26T02:58:46.632Z,96.70
2017-06-26T03:01:13.044Z,96.70
2017-06-26T03:03:39.431Z,96.60
2017-06-26T03:06:05.872Z,96.50
2017-06-26T03:08:33.079Z,96.30
2017-06-26T03:10:59.468Z,95.90
2017-06-26T03:13:26.624Z,96.60
2017-06-26T03:15:53.752Z,96.60
2017-06-26T03:18:20.307Z,96.60
2017-06-26T03:20:46.712Z,96.60
2017-06-26T03:23:13.095Z,96.90
2017-06-26T03:25:39.524Z,96.70
2017-06-26T03:28:05.978Z,97.00
2017-06-26T03:30:32.373Z,96.80
2017-06-26T03:32:59.552Z,96.80
2017-06-26T03:35:25.944Z,96.80
2017-06-26T03:37:53.169Z,97.10
2017-06-26T03:40:19.605Z,97.10
2017-06-26T03:42:45.992Z,96.90
2017-06-26T03:45:12.400Z,96.80
2017-06-26T03:47:39.625Z,97.20
2017-06-26T03:50:06.051Z,97.10
2017-06-26T03:52:32.520Z,97.10
2017-06-26T03:54:59.643Z,97.00
2017-06-26T03:57:26.036Z,97.10
2017-06-26T03:59:52.496Z,97.30
2017-06-26T04:02:18.897Z,97.40
2017-06-26T04:04:45.297Z,97.30
2017-06-26T04:07:12.529Z,97.40
2017-06-26T04:09:38.921Z,97.40
2017-06-26T04:12:05.308Z,97.40
2017-06-26T04:14:32.488Z,97.60
2017-06-26T04:16:58.952Z,97.50
2017-06-26T04:19:25.340Z,97.20
2017-06-26T04:21:51.769Z,97.40
2017-06-26T04:24:18.151Z,97.60
2017-06-26T04:26:44.597Z,96.90
2017-06-26T04:29:10.986Z,97.20
2017-06-26T04:31:37.396Z,97.40
2017-06-26T04:34:04.569Z,97.50
2017-06-26T04:36:30.983Z,97.50
2017-06-26T04:38:57.468Z,97.00
2017-06-26T04:41:24.037Z,97.30
2017-06-26T04:43:50.475Z,97.10
2017-06-26T04:46:17.605Z,95.60
2017-06-26T04:48:44.304Z,95.60
2017-06-26T04:51:10.696Z,96.70
2017-06-26T04:53:37.829Z,97.60
2017-06-26T04:56:04.338Z,97.60
2017-06-26T04:58:30.861Z,97.50
2017-06-26T05:00:57.302Z,97.40
2017-06-26T05:03:23.695Z,96.50
2017-06-26T05:05:50.117Z,97.00
2017-06-26T05:08:17.444Z,96.30
2017-06-26T05:10:43.838Z,96.30
2017-06-26T05:13:10.260Z,96.70
2017-06-26T05:15:36.769Z,96.50
2017-06-26T05:18:03.259Z,96.50
2017-06-26T05:20:29.804Z,95.80
2017-06-26T05:22:56.344Z,96.60
2017-06-26T05:25:29.661Z,96.10
2017-06-26T05:27:56.912Z,96.70
2017-06-26T05:30:24.064Z,97.10
2017-06-26T05:32:51.300Z,97.00
2017-06-26T05:35:17.741Z,97.00
2017-06-26T05:37:44.248Z,96.30
2017-06-26T05:40:10.703Z,96.50
2017-06-26T05:42:37.120Z,96.40
2017-06-26T05:45:03.512Z,96.30
2017-06-26T05:47:30.040Z,96.50
2017-06-26T05:49:56.435Z,95.90
2017-06-26T05:52:22.832Z,95.90
2017-06-26T05:54:49.292Z,95.20
2017-06-26T05:57:16.735Z,95.00
2017-06-26T05:59:43.191Z,95.00
2017-06-26T06:02:09.589Z,95.20
2017-06-26T06:04:36.025Z,95.20
2017-06-26T06:07:02.596Z,95.90
2017-06-26T06:09:29.877Z,95.20
2017-06-26T06:11:56.329Z,95.20
2017-06-26T06:14:22.704Z,95.40
2017-06-26T06:16:49.087Z,95.50
2017-06-26T06:19:15.540Z,95.00
2017-06-26T06:21:41.952Z,95.20
2017-06-26T06:24:08.356Z,95.10
2017-06-26T06:26:34.776Z,95.30
2017-06-26T06:29:01.168Z,95.40
2017-06-26T06:31:27.561Z,94.70
2017-06-26T06:33:54.725Z,94.70
2017-06-26T06:36:21.121Z,94.70
2017-06-26T06:38:47.524Z,94.70
2017-06-26T06:41:13.995Z,95.00
2017-06-26T06:43:41.125Z,95.00
2017-06-26T06:46:07.525Z,94.90
2017-06-26T06:48:34.056Z,95.40
2017-06-26T06:51:00.457Z,95.30
2017-06-26T06:53:27.605Z,94.70
2017-06-26T06:55:54.872Z,94.10
2017-06-26T06:58:21.263Z,94.10
2017-06-26T07:00:47.660Z,94.30
2017-06-26T07:03:14.096Z,93.30
2017-06-26T07:05:40.496Z,93.60
2017-06-26T07:08:06.920Z,94.20
2017-06-26T07:10:34.097Z,93.10
2017-06-26T07:13:00.484Z,93.10
2017-06-26T07:15:27.564Z,93.70
2017-06-26T07:17:53.976Z,92.80
2017-06-26T07:20:21.121Z,92.80
2017-06-26T07:22:48.301Z,93.40
2017-06-26T07:25:14.697Z,93.20
2017-06-26T07:27:41.116Z,92.40
2017-06-26T07:30:07.561Z,91.40
2017-06-26T07:32:33.948Z,92.30
2017-06-26T07:35:00.344Z,92.70
2017-06-26T07:37:27.620Z,92.30
2017-06-26T07:39:54.028Z,92.30
2017-06-26T07:42:21.197Z,92.40
2017-06-26T07:44:47.645Z,92.40
2017-06-26T07:47:14.065Z,92.20
2017-06-26T07:49:40.476Z,92.30
2017-06-26T07:52:07.668Z,88.30
2017-06-26T07:54:34.080Z,88.20
2017-06-26T07:57:00.506Z,90.10
2017-06-26T07:59:26.940Z,90.40
2017-06-26T08:01:53.336Z,86.80
2017-06-26T08:04:19.741Z,87.70
2017-06-26T08:06:46.176Z,88.40
2017-06-26T08:09:12.568Z,86.80
2017-06-26T08:11:39.000Z,82.70
2017-06-26T08:14:05.428Z,80.90
2017-06-26T08:16:31.829Z,79.10
2017-06-26T08:18:58.308Z,79.70
2017-06-26T08:21:24.701Z,77.30
2017-06-26T08:23:51.560Z,76.10
2017-06-26T08:26:18.000Z,75.40
2017-06-26T08:28:45.136Z,75.60
2017-06-26T08:31:11.652Z,75.60
2017-06-26T08:33:38.053Z,76.10
2017-06-26T08:36:04.497Z,75.80
2017-06-26T08:38:30.952Z,75.80
2017-06-26T08:40:57.352Z,80.00
2017-06-26T08:43:23.752Z,82.10
2017-06-26T08:45:50.285Z,70.50
2017-06-26T08:48:17.421Z,69.10
2017-06-26T08:50:44.560Z,68.70
2017-06-26T08:53:11.000Z,68.70
2017-06-26T08:55:37.425Z,70.00
2017-06-26T08:58:03.829Z,74.70
2017-06-26T09:00:30.220Z,67.90
2017-06-26T09:02:56.636Z,70.20
2017-06-26T09:05:23.780Z,72.20
2017-06-26T09:07:50.208Z,72.20
2017-06-26T09:10:16.603Z,73.00
2017-06-26T09:12:43.007Z,69.90
2017-06-26T09:15:09.457Z,70.30
2017-06-26T09:17:35.875Z,65.30
2017-06-26T09:20:02.440Z,64.30
2017-06-26T09:22:28.848Z,63.10
2017-06-26T09:24:55.251Z,62.20
2017-06-26T09:27:22.544Z,66.60
2017-06-26T09:29:48.932Z,66.70
2017-06-26T09:32:16.084Z,61.80
2017-06-26T09:34:43.266Z,59.80
2017-06-26T09:37:09.676Z,59.70
2017-06-26T09:39:36.803Z,57.40
2017-06-26T09:42:03.248Z,57.40
2017-06-26T09:44:30.440Z,60.90
2017-06-26T09:46:56.872Z,60.00
2017-06-26T09:49:23.319Z,58.60
2017-06-26T09:51:49.744Z,58.00
2017-06-26T09:54:16.159Z,59.20
2017-06-26T09:56:42.584Z,60.70
2017-06-26T09:59:09.024Z,60.10
2017-06-26T10:01:35.440Z,58.50
2017-06-26T10:04:02.597Z,57.50
2017-06-26T10:06:29.021Z,57.40
2017-06-26T10:08:56.173Z,55.60
2017-06-26T10:11:23.364Z,56.70
2017-06-26T10:13:49.792Z,56.60
2017-06-26T10:16:16.192Z,55.20
2017-06-26T10:18:42.592Z,54.00
2017-06-26T10:21:09.017Z,54.10
2017-06-26T10:23:35.425Z,54.10
2017-06-26T10:26:01.948Z,54.80
2017-06-26T10:28:28.364Z,59.60
2017-06-26T10:30:54.749Z,57.20
2017-06-26T10:33:21.196Z,55.30
2017-06-26T10:35:47.597Z,54.20
2017-06-26T10:38:14.044Z,56.70
2017-06-26T10:40:40.449Z,54.00
2017-06-26T10:43:06.876Z,52.70
2017-06-26T10:45:33.349Z,53.40
2017-06-26T10:47:59.767Z,54.20
2017-06-26T10:50:26.181Z,53.50
2017-06-26T10:52:52.608Z,52.90
2017-06-26T10:55:19.000Z,52.10
2017-06-26T10:57:46.132Z,52.60
2017-06-26T11:00:12.563Z,52.20
2017-06-26T11:02:38.949Z,50.90
2017-06-26T11:05:05.356Z,50.40
2017-06-26T11:07:31.800Z,51.30
2017-06-26T11:09:58.201Z,52.60
2017-06-26T11:12:24.725Z,51.10
2017-06-26T11:14:51.202Z,50.90
2017-06-26T11:17:17.608Z,52.50
2017-06-26T11:19:44.132Z,51.90
2017-06-26T11:22:10.525Z,52.70
2017-06-26T11:24:36.936Z,51.60
2017-06-26T11:27:03.520Z,50.50
2017-06-26T11:29:29.920Z,53.80
2017-06-26T11:31:56.330Z,50.80
2017-06-26T11:34:22.752Z,55.90
2017-06-26T11:36:49.883Z,49.40
2017-06-26T11:39:16.308Z,49.40
2017-06-26T11:41:42.704Z,51.00
2017-06-26T11:44:09.108Z,49.60
2017-06-26T11:46:36.519Z,51.40
2017-06-26T11:49:02.924Z,51.00
2017-06-26T11:51:29.321Z,49.60
2017-06-26T11:53:55.875Z,50.80
2017-06-26T11:56:22.275Z,50.20
2017-06-26T11:58:48.693Z,48.40
2017-06-26T12:01:15.438Z,47.90
2017-06-26T12:03:41.908Z,49.40
2017-06-26T12:06:08.312Z,51.80
2017-06-26T12:08:34.873Z,49.70
2017-06-26T12:11:01.277Z,51.70
2017-06-26T12:13:27.685Z,49.80
2017-06-26T12:15:54.132Z,50.70
2017-06-26T12:18:20.532Z,48.30
2017-06-26T12:20:46.937Z,48.20
2017-06-26T12:23:13.376Z,49.20
2017-06-26T12:25:39.777Z,53.40
2017-06-26T12:28:06.216Z,48.50
2017-06-26T12:30:32.630Z,47.30
2017-06-26T12:32:59.057Z,47.60
2017-06-26T12:35:25.445Z,48.20
2017-06-26T12:37:51.844Z,47.50
2017-06-26T12:40:18.297Z,47.60
2017-06-26T12:42:44.696Z,46.60
2017-06-26T12:45:11.096Z,47.50
2017-06-26T12:47:37.545Z,48.50
2017-06-26T12:50:03.940Z,45.60
2017-06-26T12:52:30.341Z,46.10
2017-06-26T12:54:56.769Z,46.10
2017-06-26T12:57:23.168Z,43.90
2017-06-26T12:59:49.547Z,42.40
2017-06-26T13:02:16.723Z,40.70
2017-06-26T13:04:43.108Z,40.60
2017-06-26T13:07:09.572Z,40.70
2017-06-26T13:09:36.700Z,43.10
2017-06-26T13:12:03.110Z,42.70
2017-06-26T13:14:29.636Z,43.40
2017-06-26T13:16:56.068Z,44.50
2017-06-26T13:19:22.485Z,37.70
2017-06-26T13:21:48.941Z,38.70
2017-06-26T13:24:15.536Z,39.70
2017-06-26T13:26:41.976Z,40.40
2017-06-26T13:29:08.404Z,38.60
2017-06-26T13:31:34.801Z,39.40
2017-06-26T13:34:01.199Z,36.80
2017-06-26T13:36:28.414Z,37.40
2017-06-26T13:38:54.829Z,37.20
2017-06-26T13:41:21.965Z,33.90
2017-06-26T13:43:48.416Z,33.90
2017-06-26T13:46:14.805Z,35.50
2017-06-26T13:48:41.225Z,35.00
2017-06-26T13:51:07.672Z,36.30
2017-06-26T13:56:07.232Z,35.80
2017-06-26T13:58:34.420Z,35.60
2017-06-26T14:01:00.844Z,35.60
2017-06-26T14:03:27.273Z,34.70
2017-06-26T14:05:53.701Z,32.90
2017-06-26T14:08:20.108Z,33.90
2017-06-26T14:10:47.281Z,36.10
2017-06-26T14:13:13.824Z,36.00
2017-06-26T14:15:40.264Z,35.50
2017-06-26T14:18:06.701Z,37.90
2017-06-26T14:20:33.237Z,34.10
2017-06-26T14:22:59.644Z,33.70
2017-06-26T14:25:26.092Z,36.70
2017-06-26T14:27:52.636Z,35.00
2017-06-26T14:30:19.037Z,35.00
2017-06-26T14:32:45.427Z,33.50
2017-06-26T14:35:11.871Z,35.70
2017-06-26T14:37:38.297Z,35.50
2017-06-26T14:40:04.741Z,35.50
2017-06-26T14:42:31.120Z,35.00
2017-06-26T14:44:57.530Z,36.20
2017-06-26T14:47:23.957Z,36.80
2017-06-26T14:49:51.088Z,34.70
2017-06-26T14:52:17.512Z,34.70
2017-06-26T14:54:43.912Z,35.10
2017-06-26T14:57:10.324Z,36.70
2017-06-26T14:59:36.784Z,36.40
2017-06-26T15:02:03.184Z,36.60
2017-06-26T15:04:29.585Z,35.90
2017-06-26T15:06:56.148Z,35.90
2017-06-26T15:09:22.551Z,35.10
2017-06-26T15:11:48.931Z,35.50
2017-06-26T15:14:15.411Z,36.80
2017-06-26T15:16:41.801Z,35.50
2017-06-26T15:19:08.212Z,35.20
2017-06-26T15:21:34.656Z,36.60
2017-06-26T15:24:01.073Z,34.40
2017-06-26T15:26:28.263Z,36.20
2017-06-26T15:28:54.715Z,36.30
2017-06-26T15:31:21.157Z,37.80
2017-06-26T15:33:47.545Z,38.30
2017-06-26T15:36:13.949Z,38.90
2017-06-26T15:38:41.128Z,37.80
2017-06-26T15:41:07.605Z,37.60
2017-06-26T15:43:34.080Z,36.90
2017-06-26T15:46:00.524Z,37.10
2017-06-26T15:48:27.003Z,38.20
2017-06-26T15:50:53.400Z,39.30
2017-06-26T15:53:19.936Z,38.00
2017-06-26T15:55:46.353Z,39.80
2017-06-26T15:58:12.813Z,39.40
2017-06-26T16:00:39.232Z,40.30
2017-06-26T16:03:05.624Z,41.30
2017-06-26T16:05:32.064Z,40.10
2017-06-26T16:07:58.548Z,41.50
2017-06-26T16:10:24.957Z,39.40
2017-06-26T16:12:51.391Z,39.80
2017-06-26T16:15:17.780Z,40.30
2017-06-26T16:17:44.180Z,40.10
2017-06-26T16:20:10.691Z,41.10
2017-06-26T16:22:37.085Z,42.30
2017-06-26T16:25:03.485Z,41.30
2017-06-26T16:27:30.056Z,42.20
2017-06-26T16:29:56.455Z,42.30
2017-06-26T16:32:22.895Z,42.60
2017-06-26T16:34:49.304Z,42.50
2017-06-26T16:37:15.867Z,42.60
2017-06-26T16:39:42.272Z,44.00
2017-06-26T16:42:08.668Z,43.70
2017-06-26T16:44:35.883Z,42.70
2017-06-26T16:47:02.307Z,42.60
2017-06-26T16:49:28.712Z,41.90
2017-06-26T16:51:55.144Z,42.80
2017-06-26T16:54:21.547Z,45.00
2017-06-26T16:56:47.944Z,45.20
2017-06-26T16:59:14.409Z,46.10
2017-06-26T17:01:40.820Z,46.40
2017-06-26T17:04:07.233Z,44.70
2017-06-26T17:06:33.677Z,47.20
2017-06-26T17:09:00.101Z,46.80
2017-06-26T17:11:26.525Z,46.50
2017-06-26T17:13:53.028Z,45.40
2017-06-26T17:16:19.428Z,47.00
2017-06-26T17:18:45.820Z,46.60
2017-06-26T17:21:12.247Z,47.40
2017-06-26T17:23:38.632Z,47.60
2017-06-26T17:26:05.036Z,48.90
2017-06-26T17:28:31.620Z,49.30
2017-06-26T17:30:58.753Z,49.60
2017-06-26T17:33:25.168Z,49.60
2017-06-26T17:35:51.618Z,50.20
2017-06-26T17:38:18.111Z,50.20
2017-06-26T17:40:44.512Z,50.80
2017-06-26T17:43:10.960Z,51.00
2017-06-26T17:45:37.362Z,50.80
2017-06-26T17:48:03.849Z,51.50
2017-06-26T17:50:30.378Z,51.90
2017-06-26T17:52:57.392Z,51.70
2017-06-26T17:55:30.800Z,51.50
2017-06-26T17:57:57.364Z,50.70
2017-06-26T18:00:24.660Z,51.00
2017-06-26T18:02:51.176Z,50.90
2017-06-26T18:05:17.584Z,50.90
2017-06-26T18:07:44.032Z,50.80
2017-06-26T18:10:10.472Z,51.80
2017-06-26T18:12:36.876Z,51.50
2017-06-26T18:15:03.276Z,52.70
2017-06-26T18:17:29.790Z,52.40
2017-06-26T18:19:56.927Z,55.80
2017-06-26T18:22:23.341Z,55.50
2017-06-26T18:24:49.792Z,55.80
2017-06-26T18:27:16.212Z,57.00
2017-06-26T18:29:42.615Z,57.30
2017-06-26T18:32:09.144Z,57.60
2017-06-26T18:34:35.629Z,58.10
2017-06-26T18:37:02.128Z,58.20
2017-06-26T18:39:28.603Z,58.20
2017-06-26T18:41:54.983Z,59.00
2017-06-26T18:44:21.363Z,59.00
2017-06-26T18:46:47.824Z,59.20
2017-06-26T18:49:14.297Z,59.50
2017-06-26T18:51:40.728Z,59.70
2017-06-26T18:54:07.206Z,60.30
2017-06-26T18:56:34.365Z,61.60
2017-06-26T18:59:01.564Z,61.60
2017-06-26T19:01:27.996Z,61.50
2017-06-26T19:03:54.408Z,62.90
2017-06-26T19:06:20.883Z,62.80
2017-06-26T19:08:47.308Z,63.20
2017-06-26T19:11:13.724Z,63.40
2017-06-26T19:13:40.174Z,63.80
2017-06-26T19:16:06.900Z,64.10
2017-06-26T19:18:34.380Z,64.30
2017-06-26T19:21:00.837Z,65.00
2017-06-26T19:23:28.013Z,65.60
2017-06-26T19:25:54.419Z,65.50
2017-06-26T19:28:21.672Z,66.00
2017-06-26T19:30:48.809Z,66.50
2017-06-26T19:33:15.220Z,65.90
2017-06-26T19:35:41.665Z,66.10
2017-06-26T19:38:08.257Z,66.70
2017-06-26T19:40:34.715Z,67.60
2017-06-26T19:43:01.219Z,67.70
2017-06-26T19:45:27.753Z,67.90
2017-06-26T19:47:54.235Z,68.00
2017-06-26T19:50:20.943Z,68.20
2017-06-26T19:52:47.377Z,69.30
2017-06-26T19:55:13.773Z,69.70
2017-06-26T19:57:40.989Z,70.90
2017-06-26T20:00:07.455Z,70.90
2017-06-26T20:02:34.612Z,71.40
2017-06-26T20:05:01.738Z,71.50
2017-06-26T20:07:28.273Z,71.40
2017-06-26T20:09:54.668Z,71.90
2017-06-26T20:12:21.157Z,72.10
2017-06-26T20:14:47.559Z,72.40
2017-06-26T20:17:14.028Z,73.50
2017-06-26T20:19:41.161Z,75.00
2017-06-26T20:22:07.576Z,74.20
2017-06-26T20:24:34.027Z,75.00
2017-06-26T20:27:00.417Z,75.00
2017-06-26T20:29:26.943Z,76.00
2017-06-26T20:31:53.516Z,75.20
2017-06-26T20:34:20.065Z,74.80
2017-06-26T20:36:46.497Z,75.60
2017-06-26T20:39:13.116Z,74.80
2017-06-26T20:41:39.509Z,75.20
2017-06-26T20:44:05.892Z,74.90
2017-06-26T20:46:32.343Z,75.40
2017-06-26T20:49:00.112Z,75.10
2017-06-26T20:51:26.515Z,75.10
2017-06-26T20:53:52.953Z,75.10
2017-06-26T20:56:19.472Z,74.60
2017-06-26T20:58:46.711Z,75.50
2017-06-26T21:01:13.289Z,75.50
2017-06-26T21:03:39.719Z,76.20
2017-06-26T21:06:06.111Z,76.00
2017-06-26T21:08:33.619Z,76.20
2017-06-26T21:11:00.005Z,75.60
2017-06-26T21:13:26.570Z,76.00
2017-06-26T21:15:53.000Z,76.50
2017-06-26T21:18:19.393Z,77.20
2017-06-26T21:20:45.976Z,77.90
2017-06-26T21:23:12.524Z,77.50
2017-06-26T21:25:38.957Z,77.10
2017-06-26T21:28:06.160Z,78.60
2017-06-26T21:30:32.706Z,78.40
2017-06-26T21:32:59.100Z,78.50
2017-06-26T21:35:25.508Z,78.00
2017-06-26T21:37:52.733Z,78.40
2017-06-26T21:40:19.120Z,77.30
2017-06-26T21:42:45.569Z,77.60
2017-06-26T21:45:11.964Z,78.50
2017-06-26T21:47:38.428Z,78.80
2017-06-26T21:50:04.884Z,78.90
2017-06-26T21:52:31.275Z,79.50
2017-06-26T21:54:57.667Z,80.10
2017-06-26T21:57:24.121Z,80.10
2017-06-26T21:59:51.257Z,80.00
2017-06-26T22:02:17.660Z,79.90
2017-06-26T22:04:44.099Z,80.40
2017-06-26T22:07:10.517Z,80.70
2017-06-26T22:09:36.912Z,80.10
2017-06-26T22:12:04.083Z,80.30
2017-06-26T22:14:30.507Z,80.30
2017-06-26T22:16:56.899Z,80.40
2017-06-26T22:19:23.338Z,80.00
2017-06-26T22:21:49.728Z,79.90
2017-06-26T22:24:16.200Z,79.90
2017-06-26T22:26:42.604Z,80.00
2017-06-26T22:29:09.037Z,80.70
2017-06-26T22:31:35.481Z,80.50
2017-06-26T22:34:01.884Z,80.80
2017-06-26T22:36:28.276Z,80.90
2017-06-26T22:38:55.603Z,80.60
2017-06-26T22:41:22.000Z,80.60
2017-06-26T22:43:48.401Z,80.60
2017-06-26T22:46:15.576Z,81.90
2017-06-26T22:48:42.024Z,81.90
2017-06-26T22:51:08.533Z,82.70
2017-06-26T22:53:34.932Z,83.10
2017-06-26T22:56:01.321Z,83.10
2017-06-26T22:58:27.823Z,83.30
2017-06-26T23:00:54.961Z,84.10
2017-06-26T23:03:22.100Z,85.00
2017-06-26T23:05:48.547Z,85.00
2017-06-26T23:08:15.751Z,84.80
2017-06-26T23:10:42.160Z,84.80
2017-06-26T23:13:08.663Z,85.20
2017-06-26T23:15:35.804Z,85.40
2017-06-26T23:18:02.300Z,86.10
2017-06-26T23:20:28.763Z,85.50
2017-06-26T23:22:55.152Z,85.40
2017-06-26T23:25:21.552Z,85.60
2017-06-26T23:27:48.796Z,86.10
2017-06-26T23:30:15.928Z,86.40
2017-06-26T23:32:42.336Z,86.40
2017-06-26T23:35:08.792Z,86.70
2017-06-26T23:37:35.208Z,87.30
2017-06-26T23:40:01.604Z,88.30
2017-06-26T23:42:28.033Z,87.50
2017-06-26T23:44:54.428Z,88.30
2017-06-26T23:47:20.868Z,87.80
2017-06-26T23:49:47.263Z,87.90
2017-06-26T23:52:13.724Z,88.00
2017-06-26T23:54:40.240Z,87.90
2017-06-26T23:57:06.644Z,88.10
2017-06-26T23:59:33.032Z,89.20
